createdAt,value
2018-01-16T00:00:24.204Z,9.56
2018-01-16T00:01:04.736Z,9.39
2018-01-16T00:01:45.282Z,9.5
2018-01-16T00:02:26.650Z,9.5
2018-01-16T00:03:07.211Z,9.47
2018-01-16T00:03:47.790Z,9.5
2018-01-16T00:04:28.251Z,9.5
2018-01-16T00:05:08.860Z,9.58
2018-01-16T00:05:49.386Z,9.64
2018-01-16T00:06:29.963Z,9.58
2018-01-16T00:07:10.536Z,9.57
2018-01-16T00:07:51.133Z,9.61
2018-01-16T00:08:31.643Z,9.66
2018-01-16T00:09:12.165Z,9.64
2018-01-16T00:09:52.743Z,9.65
2018-01-16T00:10:33.319Z,9.66
2018-01-16T00:11:13.820Z,9.78
2018-01-16T00:11:54.411Z,9.68
2018-01-16T00:12:34.968Z,9.72
2018-01-16T00:13:15.520Z,9.65
2018-01-16T00:13:56.051Z,9.58
2018-01-16T00:14:36.623Z,9.58
2018-01-16T00:15:17.123Z,9.51
2018-01-16T00:15:57.678Z,9.56
2018-01-16T00:16:38.172Z,9.61
2018-01-16T00:17:18.786Z,9.64
2018-01-16T00:17:59.299Z,9.61
2018-01-16T00:18:39.811Z,9.6
2018-01-16T00:19:20.354Z,9.57
2018-01-16T00:20:00.838Z,9.57
2018-01-16T00:20:41.414Z,9.47
2018-01-16T00:21:21.966Z,9.56
2018-01-16T00:22:02.462Z,9.57
2018-01-16T00:22:42.989Z,9.53
2018-01-16T00:23:23.554Z,9.58
2018-01-16T00:24:04.060Z,9.57
2018-01-16T00:24:44.696Z,9.69
2018-01-16T00:25:25.176Z,9.66
2018-01-16T00:26:05.758Z,9.5
2018-01-16T00:26:46.277Z,9.57
2018-01-16T00:27:26.862Z,9.57
2018-01-16T00:28:07.354Z,9.57
2018-01-16T00:28:47.913Z,9.5
2018-01-16T00:29:28.426Z,9.57
2018-01-16T00:30:08.984Z,9.6
2018-01-16T00:30:49.502Z,9.51
2018-01-16T00:31:30.025Z,9.51
2018-01-16T00:32:10.616Z,9.65
2018-01-16T00:32:51.148Z,9.48
2018-01-16T00:33:31.648Z,9.47
2018-01-16T00:34:12.215Z,9.5
2018-01-16T00:34:52.771Z,9.5
2018-01-16T00:35:33.354Z,9.51
2018-01-16T00:36:13.866Z,9.5
2018-01-16T00:36:54.456Z,9.51
2018-01-16T00:37:34.983Z,9.47
2018-01-16T00:38:15.626Z,9.51
2018-01-16T00:38:56.136Z,9.57
2018-01-16T00:39:36.677Z,9.5
2018-01-16T00:40:17.299Z,9.57
2018-01-16T00:40:57.806Z,9.57
2018-01-16T00:41:38.355Z,9.66
2018-01-16T00:42:18.920Z,9.66
2018-01-16T00:42:59.497Z,9.57
2018-01-16T00:43:40.019Z,9.58
2018-01-16T00:44:20.531Z,9.6
2018-01-16T00:45:01.097Z,9.58
2018-01-16T00:45:41.645Z,9.51
2018-01-16T00:46:22.129Z,9.53
2018-01-16T00:47:02.779Z,9.39
2018-01-16T00:47:43.232Z,9.38
2018-01-16T00:48:23.792Z,9.43
2018-01-16T00:49:04.310Z,9.36
2018-01-16T00:49:44.858Z,9.38
2018-01-16T00:50:25.384Z,9.35
2018-01-16T00:51:05.937Z,9.36
2018-01-16T00:51:46.440Z,9.43
2018-01-16T00:52:27.002Z,9.35
2018-01-16T00:53:07.476Z,9.36
2018-01-16T00:53:48.018Z,9.28
2018-01-16T00:54:28.532Z,9.33
2018-01-16T00:55:09.112Z,9.39
2018-01-16T00:55:49.592Z,9.39
2018-01-16T00:56:30.210Z,9.26
2018-01-16T00:57:10.718Z,9.35
2018-01-16T00:57:51.208Z,9.26
2018-01-16T00:58:31.790Z,9.31
2018-01-16T00:59:12.393Z,9.29
2018-01-16T00:59:52.946Z,9.29
2018-01-16T01:00:33.486Z,9.24
2018-01-16T01:01:14.038Z,9.26
2018-01-16T01:01:54.589Z,9.36
2018-01-16T01:02:35.133Z,9.39
2018-01-16T01:03:15.601Z,9.43
2018-01-16T01:03:56.141Z,9.26
2018-01-16T01:04:36.648Z,9.36
2018-01-16T01:05:17.216Z,9.39
2018-01-16T01:05:57.777Z,9.39
2018-01-16T01:06:38.300Z,9.43
2018-01-16T01:07:18.847Z,9.43
2018-01-16T01:07:59.382Z,9.28
2018-01-16T01:08:39.892Z,9.39
2018-01-16T01:09:20.423Z,9.35
2018-01-16T01:10:00.961Z,9.35
2018-01-16T01:10:41.446Z,9.35
2018-01-16T01:11:22.015Z,9.36
2018-01-16T01:12:02.540Z,9.36
2018-01-16T01:12:43.018Z,9.4
2018-01-16T01:13:23.561Z,9.38
2018-01-16T01:14:04.090Z,9.35
2018-01-16T01:14:44.623Z,9.4
2018-01-16T01:15:25.160Z,9.38
2018-01-16T01:16:05.723Z,9.39
2018-01-16T01:16:46.207Z,9.42
2018-01-16T01:17:26.739Z,9.29
2018-01-16T01:18:07.256Z,9.33
2018-01-16T01:18:47.798Z,9.35
2018-01-16T01:19:28.385Z,9.35
2018-01-16T01:20:08.939Z,9.4
2018-01-16T01:20:49.467Z,9.38
2018-01-16T01:21:30.017Z,9.39
2018-01-16T01:22:10.604Z,9.38
2018-01-16T01:22:51.122Z,9.29
2018-01-16T01:23:31.696Z,9.33
2018-01-16T01:24:12.216Z,9.42
2018-01-16T01:24:52.746Z,9.39
2018-01-16T01:25:33.284Z,9.35
2018-01-16T01:26:13.850Z,9.35
2018-01-16T01:26:54.410Z,9.39
2018-01-16T01:27:34.905Z,9.4
2018-01-16T01:28:15.403Z,9.35
2018-01-16T01:28:55.948Z,9.38
2018-01-16T01:29:36.457Z,9.38
2018-01-16T01:30:16.963Z,9.39
2018-01-16T01:30:57.525Z,9.38
2018-01-16T01:31:38.095Z,9.24
2018-01-16T01:32:18.663Z,9.26
2018-01-16T01:32:59.251Z,9.23
2018-01-16T01:33:39.784Z,9.29
2018-01-16T01:34:20.317Z,9.26
2018-01-16T01:35:00.851Z,9.23
2018-01-16T01:35:41.414Z,9.26
2018-01-16T01:36:21.942Z,9.26
2018-01-16T01:37:02.508Z,9.31
2018-01-16T01:37:42.998Z,9.31
2018-01-16T01:38:23.565Z,9.26
2018-01-16T01:39:04.098Z,9.26
2018-01-16T01:39:44.614Z,9.36
2018-01-16T01:40:25.158Z,9.21
2018-01-16T01:41:05.664Z,9.26
2018-01-16T01:41:46.207Z,9.32
2018-01-16T01:42:26.744Z,9.23
2018-01-16T01:43:07.306Z,9.29
2018-01-16T01:43:47.833Z,9.38
2018-01-16T01:44:28.375Z,9.39
2018-01-16T01:45:08.992Z,9.29
2018-01-16T01:45:49.474Z,9.4
2018-01-16T01:46:29.990Z,9.33
2018-01-16T01:47:10.543Z,9.39
2018-01-16T01:47:51.077Z,9.42
2018-01-16T01:48:31.646Z,9.39
2018-01-16T01:49:12.236Z,9.5
2018-01-16T01:49:52.706Z,9.39
2018-01-16T01:50:33.282Z,9.43
2018-01-16T01:51:13.836Z,9.51
2018-01-16T01:51:54.358Z,9.43
2018-01-16T01:52:34.885Z,9.4
2018-01-16T01:53:15.417Z,9.42
2018-01-16T01:53:55.949Z,9.39
2018-01-16T01:54:36.416Z,9.43
2018-01-16T01:55:16.948Z,9.36
2018-01-16T01:55:57.443Z,9.35
2018-01-16T01:56:38.016Z,9.35
2018-01-16T01:57:18.575Z,9.51
2018-01-16T01:57:59.123Z,9.48
2018-01-16T01:58:39.624Z,9.53
2018-01-16T01:59:20.255Z,9.51
2018-01-16T02:00:00.758Z,9.48
2018-01-16T02:00:41.256Z,9.46
2018-01-16T02:01:21.839Z,9.5
2018-01-16T02:02:02.492Z,9.43
2018-01-16T02:02:43.080Z,9.5
2018-01-16T02:03:23.671Z,9.53
2018-01-16T02:04:04.227Z,9.51
2018-01-16T02:04:44.747Z,9.54
2018-01-16T02:05:25.265Z,9.51
2018-01-16T02:06:05.791Z,9.5
2018-01-16T02:06:46.341Z,9.5
2018-01-16T02:07:26.915Z,9.51
2018-01-16T02:08:07.424Z,9.54
2018-01-16T02:08:47.970Z,9.58
2018-01-16T02:09:28.521Z,9.64
2018-01-16T02:10:09.082Z,9.57
2018-01-16T02:10:49.575Z,9.57
2018-01-16T02:11:30.213Z,9.47
2018-01-16T02:12:10.744Z,9.51
2018-01-16T02:12:51.301Z,9.6
2018-01-16T02:13:31.871Z,9.51
2018-01-16T02:14:12.367Z,9.53
2018-01-16T02:14:52.901Z,9.65
2018-01-16T02:15:33.466Z,9.56
2018-01-16T02:16:13.975Z,9.51
2018-01-16T02:16:54.463Z,9.43
2018-01-16T02:17:34.985Z,9.5
2018-01-16T02:18:15.535Z,9.57
2018-01-16T02:18:56.107Z,9.53
2018-01-16T02:19:36.620Z,9.51
2018-01-16T02:20:17.125Z,9.5
2018-01-16T02:20:57.730Z,9.48
2018-01-16T02:21:38.216Z,9.51
2018-01-16T02:22:18.767Z,9.56
2018-01-16T02:22:59.342Z,9.57
2018-01-16T02:23:39.831Z,9.65
2018-01-16T02:24:21.311Z,9.74
2018-01-16T02:25:01.792Z,9.76
2018-01-16T02:25:42.358Z,9.71
2018-01-16T02:26:22.927Z,9.79
2018-01-16T02:27:03.449Z,9.66
2018-01-16T02:27:43.973Z,9.69
2018-01-16T02:28:24.571Z,9.72
2018-01-16T02:29:05.082Z,9.74
2018-01-16T02:29:45.556Z,9.75
2018-01-16T02:30:26.094Z,9.74
2018-01-16T02:31:06.702Z,9.72
2018-01-16T02:31:47.251Z,9.74
2018-01-16T02:32:27.791Z,9.71
2018-01-16T02:33:08.297Z,9.83
2018-01-16T02:33:48.894Z,9.79
2018-01-16T02:34:29.441Z,9.74
2018-01-16T02:35:10.025Z,9.69
2018-01-16T02:35:50.556Z,9.71
2018-01-16T02:36:31.074Z,9.75
2018-01-16T02:37:11.606Z,9.83
2018-01-16T02:37:52.161Z,9.74
2018-01-16T02:38:32.676Z,9.71
2018-01-16T02:39:13.247Z,9.84
2018-01-16T02:39:53.792Z,9.76
2018-01-16T02:40:34.333Z,9.78
2018-01-16T02:41:14.870Z,9.75
2018-01-16T02:41:55.418Z,9.75
2018-01-16T02:42:35.958Z,9.69
2018-01-16T02:43:16.503Z,9.81
2018-01-16T02:43:57.037Z,9.84
2018-01-16T02:44:37.576Z,9.83
2018-01-16T02:45:18.125Z,9.75
2018-01-16T02:45:58.629Z,9.87
2018-01-16T02:46:39.204Z,9.79
2018-01-16T02:47:19.729Z,9.76
2018-01-16T02:48:00.242Z,9.79
2018-01-16T02:48:40.760Z,9.79
2018-01-16T02:49:21.319Z,9.74
2018-01-16T02:50:01.867Z,9.89
2018-01-16T02:50:42.387Z,9.75
2018-01-16T02:51:22.982Z,9.78
2018-01-16T02:52:03.510Z,9.81
2018-01-16T02:52:44.050Z,9.83
2018-01-16T02:53:24.606Z,9.97
2018-01-16T02:54:05.138Z,9.86
2018-01-16T02:54:45.671Z,9.78
2018-01-16T02:55:26.194Z,9.81
2018-01-16T02:56:06.754Z,9.72
2018-01-16T02:56:47.309Z,9.72
2018-01-16T02:57:27.847Z,9.71
2018-01-16T02:58:08.357Z,9.71
2018-01-16T02:58:48.917Z,9.68
2018-01-16T02:59:29.433Z,9.83
2018-01-16T03:00:09.982Z,9.76
2018-01-16T03:00:50.518Z,9.75
2018-01-16T03:01:31.080Z,9.74
2018-01-16T03:02:11.609Z,9.71
2018-01-16T03:02:52.149Z,9.71
2018-01-16T03:03:32.673Z,9.71
2018-01-16T03:04:13.194Z,9.72
2018-01-16T03:04:53.783Z,9.71
2018-01-16T03:05:34.273Z,9.75
2018-01-16T03:06:14.793Z,9.83
2018-01-16T03:06:55.307Z,9.76
2018-01-16T03:07:35.803Z,9.69
2018-01-16T03:08:16.345Z,9.75
2018-01-16T03:08:56.943Z,9.69
2018-01-16T03:09:37.521Z,9.78
2018-01-16T03:10:17.994Z,9.74
2018-01-16T03:10:58.569Z,9.74
2018-01-16T03:11:39.163Z,9.76
2018-01-16T03:12:19.730Z,9.79
2018-01-16T03:13:00.306Z,9.79
2018-01-16T03:13:40.780Z,9.76
2018-01-16T03:14:21.356Z,9.72
2018-01-16T03:15:01.893Z,9.65
2018-01-16T03:15:42.451Z,9.69
2018-01-16T03:16:22.974Z,9.76
2018-01-16T03:17:03.497Z,9.72
2018-01-16T03:17:43.987Z,9.83
2018-01-16T03:18:24.534Z,9.86
2018-01-16T03:19:05.083Z,9.66
2018-01-16T03:19:45.641Z,9.75
2018-01-16T03:20:26.164Z,9.72
2018-01-16T03:21:06.717Z,9.69
2018-01-16T03:21:47.235Z,9.71
2018-01-16T03:22:27.767Z,9.72
2018-01-16T03:23:08.371Z,9.69
2018-01-16T03:23:48.888Z,9.69
2018-01-16T03:24:29.437Z,9.75
2018-01-16T03:25:10.036Z,9.86
2018-01-16T03:25:50.540Z,9.86
2018-01-16T03:26:31.110Z,9.86
2018-01-16T03:27:11.593Z,9.9
2018-01-16T03:27:52.128Z,9.94
2018-01-16T03:28:32.681Z,9.93
2018-01-16T03:29:13.229Z,10.01
2018-01-16T03:29:53.776Z,9.97
2018-01-16T03:30:34.303Z,9.89
2018-01-16T03:31:14.879Z,9.89
2018-01-16T03:31:55.370Z,9.97
2018-01-16T03:32:35.905Z,9.91
2018-01-16T03:33:16.492Z,9.99
2018-01-16T03:33:57.065Z,9.86
2018-01-16T03:34:37.554Z,9.91
2018-01-16T03:35:18.060Z,9.97
2018-01-16T03:35:58.714Z,9.9
2018-01-16T03:36:39.259Z,10.02
2018-01-16T03:37:19.753Z,9.93
2018-01-16T03:38:00.342Z,10.02
2018-01-16T03:38:40.818Z,9.99
2018-01-16T03:39:21.387Z,9.99
2018-01-16T03:40:01.878Z,9.93
2018-01-16T03:40:42.454Z,9.91
2018-01-16T03:41:23.048Z,9.9
2018-01-16T03:42:03.561Z,9.87
2018-01-16T03:42:44.151Z,9.84
2018-01-16T03:43:24.676Z,9.75
2018-01-16T03:44:05.234Z,9.84
2018-01-16T03:44:45.834Z,9.74
2018-01-16T03:45:26.281Z,9.86
2018-01-16T03:46:06.819Z,9.87
2018-01-16T03:46:47.357Z,9.81
2018-01-16T03:47:27.859Z,9.96
2018-01-16T03:48:08.412Z,9.96
2018-01-16T03:48:48.925Z,9.89
2018-01-16T03:49:29.526Z,9.83
2018-01-16T03:50:10.078Z,9.83
2018-01-16T03:50:50.624Z,9.76
2018-01-16T03:51:31.177Z,9.71
2018-01-16T03:52:11.724Z,9.78
2018-01-16T03:52:52.334Z,9.78
2018-01-16T03:53:32.834Z,9.84
2018-01-16T03:54:13.382Z,9.89
2018-01-16T03:54:53.895Z,9.76
2018-01-16T03:55:34.430Z,9.74
2018-01-16T03:56:14.951Z,9.83
2018-01-16T03:56:55.487Z,9.75
2018-01-16T03:57:36.024Z,9.84
2018-01-16T03:58:16.557Z,9.78
2018-01-16T03:58:57.089Z,9.83
2018-01-16T03:59:37.634Z,9.78
2018-01-16T04:00:18.132Z,9.72
2018-01-16T04:00:58.657Z,9.81
2018-01-16T04:01:39.198Z,9.72
2018-01-16T04:02:19.714Z,9.79
2018-01-16T04:03:00.272Z,9.84
2018-01-16T04:03:40.856Z,9.96
2018-01-16T04:04:21.379Z,9.86
2018-01-16T04:05:01.949Z,9.81
2018-01-16T04:05:42.483Z,9.83
2018-01-16T04:06:23.011Z,9.76
2018-01-16T04:07:03.540Z,9.89
2018-01-16T04:07:44.024Z,9.83
2018-01-16T04:08:24.552Z,9.79
2018-01-16T04:09:05.170Z,9.83
2018-01-16T04:09:45.676Z,9.83
2018-01-16T04:10:26.160Z,9.84
2018-01-16T04:11:06.714Z,9.81
2018-01-16T04:11:47.253Z,9.96
2018-01-16T04:12:27.825Z,9.97
2018-01-16T04:13:08.344Z,9.99
2018-01-16T04:13:48.944Z,10.04
2018-01-16T04:14:29.417Z,10.12
2018-01-16T04:15:09.984Z,10.01
2018-01-16T04:15:50.508Z,10.05
2018-01-16T04:16:31.013Z,9.94
2018-01-16T04:17:11.537Z,9.93
2018-01-16T04:17:52.058Z,9.97
2018-01-16T04:18:32.626Z,9.91
2018-01-16T04:19:13.160Z,9.86
2018-01-16T04:19:53.690Z,9.91
2018-01-16T04:20:34.178Z,9.96
2018-01-16T04:21:14.733Z,10.01
2018-01-16T04:21:55.294Z,9.96
2018-01-16T04:22:35.806Z,9.94
2018-01-16T04:23:16.294Z,9.93
2018-01-16T04:23:56.821Z,9.79
2018-01-16T04:24:37.358Z,9.74
2018-01-16T04:25:17.923Z,9.75
2018-01-16T04:25:58.516Z,9.76
2018-01-16T04:26:39.080Z,9.83
2018-01-16T04:27:19.613Z,9.89
2018-01-16T04:28:00.081Z,9.83
2018-01-16T04:28:40.628Z,9.83
2018-01-16T04:29:21.214Z,9.83
2018-01-16T04:30:01.757Z,9.99
2018-01-16T04:30:42.295Z,9.83
2018-01-16T04:31:22.888Z,9.86
2018-01-16T04:32:03.415Z,9.76
2018-01-16T04:33:51.412Z,9.84
2018-01-16T04:34:31.974Z,9.84
2018-01-16T04:35:12.612Z,9.84
2018-01-16T04:35:53.366Z,9.89
2018-01-16T04:36:33.899Z,9.91
2018-01-16T04:37:14.466Z,9.86
2018-01-16T04:37:54.966Z,9.81
2018-01-16T04:38:35.529Z,9.94
2018-01-16T04:39:16.050Z,9.83
2018-01-16T04:39:56.573Z,9.83
2018-01-16T04:40:37.134Z,9.94
2018-01-16T04:41:17.701Z,9.93
2018-01-16T04:41:58.178Z,10.01
2018-01-16T04:42:38.724Z,9.97
2018-01-16T04:43:19.225Z,9.94
2018-01-16T04:43:59.799Z,10.02
2018-01-16T04:44:40.363Z,10.02
2018-01-16T04:45:20.899Z,9.96
2018-01-16T04:46:01.407Z,10.01
2018-01-16T04:46:42.020Z,9.94
2018-01-16T04:47:22.611Z,9.99
2018-01-16T04:48:03.205Z,10.02
2018-01-16T04:48:43.754Z,10.07
2018-01-16T04:49:24.311Z,9.99
2018-01-16T04:50:04.826Z,10.05
2018-01-16T04:50:45.338Z,10.07
2018-01-16T04:51:25.903Z,10.05
2018-01-16T04:52:06.439Z,9.97
2018-01-16T04:52:46.995Z,9.97
2018-01-16T04:53:27.529Z,9.96
2018-01-16T04:54:08.107Z,9.87
2018-01-16T04:54:48.606Z,10.05
2018-01-16T04:55:29.157Z,10.02
2018-01-16T04:56:09.741Z,9.99
2018-01-16T04:56:50.284Z,9.97
2018-01-16T04:57:30.807Z,9.99
2018-01-16T04:58:11.387Z,10.05
2018-01-16T04:58:51.944Z,9.99
2018-01-16T04:59:32.528Z,9.91
2018-01-16T05:00:13.035Z,9.94
2018-01-16T05:00:53.548Z,9.84
2018-01-16T05:01:34.101Z,9.91
2018-01-16T05:02:14.618Z,9.87
2018-01-16T05:02:55.184Z,9.89
2018-01-16T05:03:35.731Z,9.97
2018-01-16T05:04:16.296Z,9.91
2018-01-16T05:04:56.834Z,9.93
2018-01-16T05:05:37.351Z,9.89
2018-01-16T05:06:17.930Z,9.93
2018-01-16T05:06:58.447Z,9.84
2018-01-16T05:07:38.987Z,9.83
2018-01-16T05:08:19.564Z,9.83
2018-01-16T05:09:00.084Z,9.94
2018-01-16T05:09:40.679Z,9.93
2018-01-16T05:10:21.254Z,9.83
2018-01-16T05:11:01.757Z,9.86
2018-01-16T05:11:42.284Z,9.79
2018-01-16T05:12:22.834Z,9.93
2018-01-16T05:13:03.351Z,9.9
2018-01-16T05:13:43.887Z,9.83
2018-01-16T05:14:24.432Z,9.91
2018-01-16T05:15:04.929Z,10.04
2018-01-16T05:15:45.498Z,9.97
2018-01-16T05:16:26.032Z,9.99
2018-01-16T05:17:06.532Z,9.96
2018-01-16T05:17:47.057Z,10.02
2018-01-16T05:18:27.664Z,9.93
2018-01-16T05:19:08.165Z,10.02
2018-01-16T05:19:48.681Z,10.08
2018-01-16T05:20:29.241Z,10.09
2018-01-16T05:21:09.789Z,10.08
2018-01-16T05:21:50.314Z,10.05
2018-01-16T05:22:30.873Z,10.02
2018-01-16T05:23:11.428Z,9.99
2018-01-16T05:23:51.982Z,10.02
2018-01-16T05:24:32.433Z,10.02
2018-01-16T05:25:12.951Z,9.99
2018-01-16T05:25:53.468Z,10.05
2018-01-16T05:26:34.003Z,10.17
2018-01-16T05:27:14.537Z,10.18
2018-01-16T05:27:55.113Z,10.07
2018-01-16T05:28:35.557Z,10.01
2018-01-16T05:29:16.099Z,10.09
2018-01-16T05:29:56.689Z,10.12
2018-01-16T05:30:37.158Z,10.11
2018-01-16T05:31:17.681Z,10.07
2018-01-16T05:31:58.227Z,10.11
2018-01-16T05:32:38.753Z,10.04
2018-01-16T05:33:19.280Z,10.04
2018-01-16T05:33:59.778Z,10.11
2018-01-16T05:34:40.271Z,10.07
2018-01-16T05:35:20.866Z,10.09
2018-01-16T05:36:01.360Z,10.17
2018-01-16T05:36:42.027Z,10.07
2018-01-16T05:37:22.533Z,10.05
2018-01-16T05:38:03.126Z,10.04
2018-01-16T05:38:43.674Z,9.99
2018-01-16T05:39:24.244Z,10.02
2018-01-16T05:40:04.775Z,9.94
2018-01-16T05:40:45.307Z,9.93
2018-01-16T05:41:25.816Z,9.99
2018-01-16T05:42:06.377Z,10.05
2018-01-16T05:42:46.888Z,10.05
2018-01-16T05:43:27.371Z,10.09
2018-01-16T05:44:07.928Z,10.11
2018-01-16T05:44:48.461Z,10.08
2018-01-16T05:45:28.995Z,10.05
2018-01-16T05:46:09.528Z,10.05
2018-01-16T05:46:50.070Z,10.01
2018-01-16T05:47:30.571Z,9.94
2018-01-16T05:48:11.144Z,10.04
2018-01-16T05:48:51.660Z,10.02
2018-01-16T05:49:32.197Z,10.01
2018-01-16T05:50:12.761Z,9.94
2018-01-16T05:50:53.312Z,9.86
2018-01-16T05:51:33.957Z,9.87
2018-01-16T05:52:14.497Z,9.84
2018-01-16T05:52:54.991Z,9.81
2018-01-16T05:53:35.563Z,9.89
2018-01-16T05:54:16.116Z,9.94
2018-01-16T05:54:56.745Z,9.84
2018-01-16T05:55:37.287Z,9.84
2018-01-16T05:56:17.819Z,9.83
2018-01-16T05:56:58.351Z,9.71
2018-01-16T05:57:38.911Z,9.72
2018-01-16T05:58:19.421Z,9.83
2018-01-16T05:58:59.960Z,9.79
2018-01-16T06:00:38.172Z,9.76
2018-01-16T06:01:18.674Z,9.78
2018-01-16T06:01:59.216Z,9.74
2018-01-16T06:02:39.760Z,9.83
2018-01-16T06:03:20.320Z,9.75
2018-01-16T06:04:00.894Z,9.79
2018-01-16T06:04:41.445Z,9.75
2018-01-16T06:05:21.984Z,9.79
2018-01-16T06:06:02.504Z,9.81
2018-01-16T06:06:43.034Z,9.94
2018-01-16T06:07:23.551Z,9.93
2018-01-16T06:08:04.125Z,10.02
2018-01-16T06:08:44.721Z,10.04
2018-01-16T06:09:25.169Z,9.99
2018-01-16T06:10:05.782Z,10.08
2018-01-16T06:10:46.312Z,10.11
2018-01-16T06:11:26.857Z,10.09
2018-01-16T06:12:07.409Z,10.09
2018-01-16T06:12:48.036Z,9.96
2018-01-16T06:13:28.596Z,9.94
2018-01-16T06:14:09.320Z,9.9
2018-01-16T06:14:49.756Z,9.84
2018-01-16T06:15:30.327Z,9.78
2018-01-16T06:16:10.902Z,9.89
2018-01-16T06:16:51.443Z,9.81
2018-01-16T06:17:31.965Z,9.81
2018-01-16T06:18:12.561Z,9.83
2018-01-16T06:18:53.055Z,9.91
2018-01-16T06:19:33.609Z,9.81
2018-01-16T06:20:14.202Z,9.86
2018-01-16T06:20:54.749Z,9.91
2018-01-16T06:21:35.331Z,9.86
2018-01-16T06:22:15.953Z,9.84
2018-01-16T06:22:56.609Z,9.78
2018-01-16T06:23:36.981Z,9.84
2018-01-16T06:24:17.629Z,9.83
2018-01-16T06:24:58.155Z,9.74
2018-01-16T06:25:38.723Z,9.79
2018-01-16T06:26:19.295Z,9.99
2018-01-16T06:26:59.799Z,9.89
2018-01-16T06:27:40.292Z,9.94
2018-01-16T06:28:20.850Z,9.99
2018-01-16T06:29:01.404Z,10.02
2018-01-16T06:29:41.954Z,10.05
2018-01-16T06:30:22.493Z,9.99
2018-01-16T06:31:03.009Z,10.02
2018-01-16T06:31:43.556Z,9.93
2018-01-16T06:32:24.120Z,9.96
2018-01-16T06:33:04.637Z,10.02
2018-01-16T06:33:45.135Z,10.12
2018-01-16T06:34:25.692Z,10.01
2018-01-16T06:35:06.238Z,9.96
2018-01-16T06:35:46.875Z,9.94
2018-01-16T06:36:27.416Z,9.9
2018-01-16T06:37:07.950Z,10.05
2018-01-16T06:37:48.494Z,10.09
2018-01-16T06:38:28.989Z,9.99
2018-01-16T06:39:09.541Z,9.94
2018-01-16T06:39:50.174Z,9.96
2018-01-16T06:40:30.729Z,10.18
2018-01-16T06:41:11.277Z,10.07
2018-01-16T06:41:51.805Z,10.23
2018-01-16T06:42:32.360Z,10.29
2018-01-16T06:43:13.364Z,10.14
2018-01-16T06:43:53.462Z,10.11
2018-01-16T06:44:33.980Z,10.26
2018-01-16T06:45:14.692Z,10.32
2018-01-16T06:45:55.121Z,10.38
2018-01-16T06:46:36.106Z,10.3
2018-01-16T06:47:16.706Z,10.48
2018-01-16T06:47:57.265Z,10.33
2018-01-16T06:48:37.853Z,10.41
2018-01-16T06:49:18.422Z,10.34
2018-01-16T06:49:58.984Z,10.42
2018-01-16T06:50:39.448Z,10.48
2018-01-16T06:51:20.035Z,10.59
2018-01-16T06:52:00.624Z,10.56
2018-01-16T06:52:41.122Z,10.63
2018-01-16T06:53:21.686Z,10.53
2018-01-16T06:54:02.313Z,10.52
2018-01-16T06:54:42.799Z,10.64
2018-01-16T06:55:23.333Z,10.61
2018-01-16T06:56:03.832Z,10.66
2018-01-16T06:56:44.390Z,10.68
2018-01-16T06:57:24.926Z,10.67
2018-01-16T06:58:05.474Z,10.73
2018-01-16T06:58:46.003Z,10.67
2018-01-16T06:59:26.627Z,10.51
2018-01-16T07:00:07.060Z,10.61
2018-01-16T07:00:47.624Z,10.71
2018-01-16T07:01:28.168Z,10.76
2018-01-16T07:02:09.068Z,10.68
2018-01-16T07:02:49.426Z,10.53
2018-01-16T07:03:30.048Z,10.61
2018-01-16T07:04:10.572Z,10.64
2018-01-16T07:04:51.115Z,10.59
2018-01-16T07:05:31.670Z,10.61
2018-01-16T07:06:12.297Z,10.74
2018-01-16T07:06:53.623Z,10.73
2018-01-16T07:07:34.154Z,10.76
2018-01-16T07:08:14.693Z,10.92
2018-01-16T07:08:55.275Z,10.99
2018-01-16T07:09:35.811Z,10.86
2018-01-16T07:10:16.415Z,10.85
2018-01-16T07:10:56.952Z,10.79
2018-01-16T07:11:37.522Z,10.81
2018-01-16T07:12:18.022Z,10.78
2018-01-16T07:12:58.584Z,10.76
2018-01-16T07:13:39.153Z,10.82
2018-01-16T07:14:19.637Z,10.81
2018-01-16T07:15:00.207Z,10.84
2018-01-16T07:15:40.785Z,10.78
2018-01-16T07:16:21.320Z,11.73
2018-01-16T07:17:01.987Z,12.04
2018-01-16T07:17:42.788Z,11.98
2018-01-16T07:18:23.363Z,12.16
2018-01-16T07:19:03.901Z,12.71
2018-01-16T07:19:44.472Z,12.83
2018-01-16T07:20:25.045Z,12.47
2018-01-16T07:21:05.514Z,12.79
2018-01-16T07:21:46.062Z,12.93
2018-01-16T07:22:26.610Z,12.83
2018-01-16T07:23:07.182Z,12.74
2018-01-16T07:23:47.713Z,12.65
2018-01-16T07:24:28.243Z,12.5
2018-01-16T07:25:08.799Z,12.34
2018-01-16T07:25:49.299Z,12.09
2018-01-16T07:26:29.856Z,12.12
2018-01-16T07:27:10.384Z,11.76
2018-01-16T07:27:50.937Z,11.36
2018-01-16T07:28:31.460Z,11.28
2018-01-16T07:29:12.072Z,11.27
2018-01-16T07:29:52.601Z,11.25
2018-01-16T07:30:33.132Z,11.07
2018-01-16T07:31:13.687Z,11.79
2018-01-16T07:31:54.223Z,11.95
2018-01-16T07:32:34.732Z,12.71
2018-01-16T07:33:15.229Z,12.23
2018-01-16T07:33:55.764Z,12.14
2018-01-16T07:34:36.318Z,12.04
2018-01-16T07:35:16.866Z,12.39
2018-01-16T07:35:57.343Z,12.64
2018-01-16T07:36:37.913Z,13.1
2018-01-16T07:37:18.427Z,12.93
2018-01-16T07:37:58.927Z,13.1
2018-01-16T07:38:39.436Z,13.1
2018-01-16T07:39:19.983Z,12.68
2018-01-16T07:40:00.478Z,12.68
2018-01-16T07:40:41.009Z,12.52
2018-01-16T07:41:21.575Z,12.56
2018-01-16T07:42:02.134Z,12.21
2018-01-16T07:42:42.651Z,11.95
2018-01-16T07:43:23.194Z,11.67
2018-01-16T07:44:03.719Z,11.69
2018-01-16T07:44:44.259Z,11.78
2018-01-16T07:45:24.765Z,11.67
2018-01-16T07:46:05.322Z,11.65
2018-01-16T07:46:46.336Z,11.75
2018-01-16T07:47:26.869Z,11.65
2018-01-16T07:48:07.434Z,11.58
2018-01-16T07:48:48.002Z,11.62
2018-01-16T07:49:28.976Z,11.65
2018-01-16T07:50:09.525Z,11.78
2018-01-16T07:50:50.063Z,11.72
2018-01-16T07:51:30.558Z,11.51
2018-01-16T07:52:11.117Z,11.47
2018-01-16T07:52:51.699Z,11.65
2018-01-16T07:53:32.275Z,11.72
2018-01-16T07:54:12.797Z,11.64
2018-01-16T07:54:53.364Z,11.43
2018-01-16T07:55:33.858Z,11.39
2018-01-16T07:56:14.417Z,11.43
2018-01-16T07:56:54.958Z,11.51
2018-01-16T07:57:35.510Z,11.54
2018-01-16T07:58:15.981Z,11.51
2018-01-16T07:58:56.550Z,11.58
2018-01-16T07:59:37.061Z,11.65
2018-01-16T08:00:17.591Z,11.64
2018-01-16T08:01:55.519Z,12.24
2018-01-16T08:02:36.063Z,12.54
2018-01-16T08:03:16.607Z,12.17
2018-01-16T08:03:57.157Z,12.42
2018-01-16T08:04:37.661Z,12.39
2018-01-16T08:05:18.215Z,12.38
2018-01-16T08:05:58.730Z,12.62
2018-01-16T08:06:39.277Z,12.62
2018-01-16T08:07:19.861Z,12.65
2018-01-16T08:08:01.201Z,12.41
2018-01-16T08:08:40.916Z,11.86
2018-01-16T08:09:21.477Z,11.86
2018-01-16T08:10:01.949Z,12.05
2018-01-16T08:10:42.487Z,11.99
2018-01-16T08:11:23.057Z,12.01
2018-01-16T08:12:03.565Z,11.95
2018-01-16T08:12:44.182Z,11.78
2018-01-16T08:13:24.617Z,11.75
2018-01-16T08:14:05.213Z,12.7
2018-01-16T08:14:45.745Z,12.49
2018-01-16T08:15:26.349Z,12.97
2018-01-16T08:16:06.826Z,13.12
2018-01-16T08:16:47.371Z,12.79
2018-01-16T08:17:27.932Z,12.46
2018-01-16T08:18:08.545Z,12.78
2018-01-16T08:18:49.168Z,13.28
2018-01-16T08:19:29.708Z,12.95
2018-01-16T08:20:10.176Z,12.85
2018-01-16T08:20:50.740Z,12.83
2018-01-16T08:21:31.292Z,13.11
2018-01-16T08:22:11.816Z,12.89
2018-01-16T08:22:52.314Z,12.96
2018-01-16T08:23:32.906Z,13
2018-01-16T08:24:13.386Z,12.65
2018-01-16T08:24:53.995Z,12.47
2018-01-16T08:25:34.493Z,12.38
2018-01-16T08:26:15.078Z,12.28
2018-01-16T08:26:55.608Z,12.01
2018-01-16T08:27:36.149Z,11.78
2018-01-16T08:28:16.689Z,11.78
2018-01-16T08:28:57.249Z,11.82
2018-01-16T08:29:37.770Z,11.9
2018-01-16T08:30:18.517Z,11.73
2018-01-16T08:30:59.088Z,11.96
2018-01-16T08:31:39.640Z,12.14
2018-01-16T08:32:20.176Z,12.54
2018-01-16T08:33:00.927Z,12.68
2018-01-16T08:33:42.997Z,12.47
2018-01-16T08:34:23.591Z,12.35
2018-01-16T08:35:04.146Z,12.5
2018-01-16T08:35:44.692Z,12.67
2018-01-16T08:36:25.280Z,12.54
2018-01-16T08:37:05.782Z,12.37
2018-01-16T08:37:46.384Z,12.02
2018-01-16T08:38:26.957Z,11.99
2018-01-16T08:39:07.529Z,11.94
2018-01-16T08:39:48.082Z,11.96
2018-01-16T08:40:28.549Z,12.04
2018-01-16T08:41:09.086Z,12.04
2018-01-16T08:41:49.637Z,11.99
2018-01-16T08:42:30.134Z,11.98
2018-01-16T08:43:10.661Z,11.9
2018-01-16T08:43:51.310Z,11.52
2018-01-16T08:44:31.804Z,11.69
2018-01-16T08:45:12.495Z,11.67
2018-01-16T08:45:52.949Z,11.83
2018-01-16T08:46:33.501Z,11.65
2018-01-16T08:47:14.029Z,12.12
2018-01-16T08:47:54.591Z,12.31
2018-01-16T08:48:35.159Z,12.53
2018-01-16T08:49:15.674Z,12.65
2018-01-16T08:49:56.257Z,12.7
2018-01-16T08:50:36.752Z,12.77
2018-01-16T08:51:17.542Z,12.72
2018-01-16T08:51:58.023Z,12.6
2018-01-16T08:52:38.608Z,12.49
2018-01-16T08:53:19.247Z,12.39
2018-01-16T08:53:59.877Z,12.45
2018-01-16T08:54:40.453Z,12.45
2018-01-16T08:55:20.958Z,12.28
2018-01-16T08:56:01.564Z,12.14
2018-01-16T08:56:42.228Z,12.24
2018-01-16T08:57:22.723Z,12.28